sensor_id;sensor_type;location;lat;lon;timestamp;pressure;altitude;pressure_sealevel;temperature;humidity
28630;BME280;15817;42.130;24.762;2023-04-27T00:01:16;99331.25;;;13.39;64.43
28630;BME280;15817;42.130;24.762;2023-04-27T00:03:42;99336.59;;;13.39;64.15
28630;BME280;15817;42.130;24.762;2023-04-27T00:06:12;99337.56;;;13.36;64.48
28630;BME280;15817;42.130;24.762;2023-04-27T00:08:37;99339.38;;;13.36;64.39
28630;BME280;15817;42.130;24.762;2023-04-27T00:11:03;99348.34;;;13.33;64.17
28630;BME280;15817;42.130;24.762;2023-04-27T00:13:29;99362.34;;;13.41;64.84
28630;BME280;15817;42.130;24.762;2023-04-27T00:15:58;99355.28;;;13.39;64.69
28630;BME280;15817;42.130;24.762;2023-04-27T00:18:31;99360.69;;;13.37;64.34
28630;BME280;15817;42.130;24.762;2023-04-27T00:21:09;99365.16;;;13.37;64.84
28630;BME280;15817;42.130;24.762;2023-04-27T00:23:35;99356.34;;;13.33;64.77
28630;BME280;15817;42.130;24.762;2023-04-27T00:26:04;99359.94;;;13.32;65.18
28630;BME280;15817;42.130;24.762;2023-04-27T00:28:35;99367.09;;;13.30;65.75
28630;BME280;15817;42.130;24.762;2023-04-27T00:31:01;99378.63;;;13.32;66.88
28630;BME280;15817;42.130;24.762;2023-04-27T00:33:28;99380.59;;;13.26;68.22
28630;BME280;15817;42.130;24.762;2023-04-27T00:35:56;99375.31;;;13.23;68.59
28630;BME280;15817;42.130;24.762;2023-04-27T00:38:23;99391.16;;;13.29;69.48
28630;BME280;15817;42.130;24.762;2023-04-27T00:40:49;99387.66;;;13.27;69.20
28630;BME280;15817;42.130;24.762;2023-04-27T00:43:15;99378.94;;;13.20;70.46
28630;BME280;15817;42.130;24.762;2023-04-27T00:45:41;99385.22;;;13.18;69.58
28630;BME280;15817;42.130;24.762;2023-04-27T00:48:09;99396.81;;;13.17;70.43
28630;BME280;15817;42.130;24.762;2023-04-27T00:50:35;99386.31;;;13.07;70.29
28630;BME280;15817;42.130;24.762;2023-04-27T00:53:12;99394.25;;;13.11;70.48
28630;BME280;15817;42.130;24.762;2023-04-27T00:55:39;99407.66;;;13.09;70.85
28630;BME280;15817;42.130;24.762;2023-04-27T00:58:10;99393.63;;;12.99;69.99
28630;BME280;15817;42.130;24.762;2023-04-27T01:00:39;99397.19;;;13.00;70.60
28630;BME280;15817;42.130;24.762;2023-04-27T01:03:06;99395.53;;;12.94;70.47
28630;BME280;15817;42.130;24.762;2023-04-27T01:05:36;99386.78;;;12.88;70.89
28630;BME280;15817;42.130;24.762;2023-04-27T01:08:02;99397.41;;;12.91;70.25
28630;BME280;15817;42.130;24.762;2023-04-27T01:10:28;99407.97;;;12.95;71.23
28630;BME280;15817;42.130;24.762;2023-04-27T01:12:57;99403.56;;;12.93;72.08
28630;BME280;15817;42.130;24.762;2023-04-27T01:15:25;99419.63;;;12.91;70.16
28630;BME280;15817;42.130;24.762;2023-04-27T01:17:58;99424.03;;;12.92;70.68
28630;BME280;15817;42.130;24.762;2023-04-27T01:20:27;99420.53;;;12.90;69.69
28630;BME280;15817;42.130;24.762;2023-04-27T01:22:55;99425.91;;;12.89;69.44
28630;BME280;15817;42.130;24.762;2023-04-27T01:25:27;99426.03;;;12.83;67.99
28630;BME280;15817;42.130;24.762;2023-04-27T01:27:55;99420.63;;;12.86;67.97
28630;BME280;15817;42.130;24.762;2023-04-27T01:30:23;99426.78;;;12.89;67.30
28630;BME280;15817;42.130;24.762;2023-04-27T01:32:50;99441.06;;;12.87;65.93
28630;BME280;15817;42.130;24.762;2023-04-27T01:35:20;99426.22;;;12.75;65.70
28630;BME280;15817;42.130;24.762;2023-04-27T01:38:00;99433.25;;;12.79;65.24
28630;BME280;15817;42.130;24.762;2023-04-27T01:40:27;99427.06;;;12.77;63.90
28630;BME280;15817;42.130;24.762;2023-04-27T01:42:53;99446.66;;;12.76;63.79
28630;BME280;15817;42.130;24.762;2023-04-27T01:45:24;99437.78;;;12.76;63.47
28630;BME280;15817;42.130;24.762;2023-04-27T01:47:50;99448.28;;;12.82;64.32
28630;BME280;15817;42.130;24.762;2023-04-27T01:50:19;99447.53;;;12.77;63.45
28630;BME280;15817;42.130;24.762;2023-04-27T01:52:45;99458.19;;;12.78;63.04
28630;BME280;15817;42.130;24.762;2023-04-27T01:55:13;99465.13;;;12.85;63.60
28630;BME280;15817;42.130;24.762;2023-04-27T01:57:42;99460.69;;;12.84;63.00
28630;BME280;15817;42.130;24.762;2023-04-27T02:00:08;99458.06;;;12.83;63.30
28630;BME280;15817;42.130;24.762;2023-04-27T02:02:48;99454.53;;;12.81;62.80
28630;BME280;15817;42.130;24.762;2023-04-27T02:05:22;99454.66;;;12.76;63.31
28630;BME280;15817;42.130;24.762;2023-04-27T02:07:49;99461.75;;;12.77;62.52
28630;BME280;15817;42.130;24.762;2023-04-27T02:10:15;99458.25;;;12.74;62.38
28630;BME280;15817;42.130;24.762;2023-04-27T02:12:41;99468.84;;;12.78;62.78
28630;BME280;15817;42.130;24.762;2023-04-27T02:15:08;99464.47;;;12.74;62.76
28630;BME280;15817;42.130;24.762;2023-04-27T02:17:34;99478.66;;;12.78;62.65
28630;BME280;15817;42.130;24.762;2023-04-27T02:20:00;99475.09;;;12.77;62.42
28630;BME280;15817;42.130;24.762;2023-04-27T02:22:26;99470.75;;;12.72;62.33
28630;BME280;15817;42.130;24.762;2023-04-27T02:24:54;99477.97;;;12.68;62.46
28630;BME280;15817;42.130;24.762;2023-04-27T02:27:20;99484.19;;;12.68;62.52
28630;BME280;15817;42.130;24.762;2023-04-27T02:29:46;99476.94;;;12.74;62.19
28630;BME280;15817;42.130;24.762;2023-04-27T02:32:15;99471.84;;;12.63;61.86
28630;BME280;15817;42.130;24.762;2023-04-27T02:34:43;99485.81;;;12.74;62.19
28630;BME280;15817;42.130;24.762;2023-04-27T02:37:09;99478.91;;;12.65;61.41
28630;BME280;15817;42.130;24.762;2023-04-27T02:39:35;99486.72;;;12.73;61.50
28630;BME280;15817;42.130;24.762;2023-04-27T02:42:01;99496.50;;;12.74;61.32
28630;BME280;15817;42.130;24.762;2023-04-27T02:44:29;99482.47;;;12.64;61.93
28630;BME280;15817;42.130;24.762;2023-04-27T02:46:56;99480.66;;;12.66;62.16
28630;BME280;15817;42.130;24.762;2023-04-27T02:49:23;99491.34;;;12.66;61.33
28630;BME280;15817;42.130;24.762;2023-04-27T02:51:49;99482.47;;;12.64;61.05
28630;BME280;15817;42.130;24.762;2023-04-27T02:54:15;99492.28;;;12.64;61.44
28630;BME280;15817;42.130;24.762;2023-04-27T02:56:43;99498.50;;;12.63;61.03
28630;BME280;15817;42.130;24.762;2023-04-27T02:59:09;99485.34;;;12.55;61.28
28630;BME280;15817;42.130;24.762;2023-04-27T03:01:35;99499.41;;;12.62;60.66
28630;BME280;15817;42.130;24.762;2023-04-27T03:04:01;99494.06;;;12.63;60.54
28630;BME280;15817;42.130;24.762;2023-04-27T03:06:35;99508.22;;;12.67;61.28
28630;BME280;15817;42.130;24.762;2023-04-27T03:09:01;99506.47;;;12.66;60.55
28630;BME280;15817;42.130;24.762;2023-04-27T03:11:28;99497.59;;;12.64;60.42
28630;BME280;15817;42.130;24.762;2023-04-27T03:13:54;99510.91;;;12.65;60.16
28630;BME280;15817;42.130;24.762;2023-04-27T03:16:19;99505.72;;;12.58;59.88
28630;BME280;15817;42.130;24.762;2023-04-27T03:18:48;99510.19;;;12.57;59.90
28630;BME280;15817;42.130;24.762;2023-04-27T03:21:17;99504.03;;;12.54;59.86
28630;BME280;15817;42.130;24.762;2023-04-27T03:23:43;99502.22;;;12.56;60.16
28630;BME280;15817;42.130;24.762;2023-04-27T03:26:11;99520.75;;;12.62;59.82
28630;BME280;15817;42.130;24.762;2023-04-27T03:28:39;99526.22;;;12.57;60.08
28630;BME280;15817;42.130;24.762;2023-04-27T03:31:10;99520.16;;;12.48;59.38
28630;BME280;15817;42.130;24.762;2023-04-27T03:33:37;99528.06;;;12.52;59.07
28630;BME280;15817;42.130;24.762;2023-04-27T03:36:04;99521.94;;;12.47;59.73
28630;BME280;15817;42.130;24.762;2023-04-27T03:39:12;99537.84;;;12.53;59.63
28630;BME280;15817;42.130;24.762;2023-04-27T03:41:44;99520.16;;;12.46;59.74
28630;BME280;15817;42.130;24.762;2023-04-27T03:44:12;99525.47;;;12.48;59.58
28630;BME280;15817;42.130;24.762;2023-04-27T03:46:38;99537.84;;;12.53;59.59
28630;BME280;15817;42.130;24.762;2023-04-27T03:49:05;99535.16;;;12.53;59.37
28630;BME280;15817;42.130;24.762;2023-04-27T03:51:40;99539.69;;;12.48;59.63
28630;BME280;15817;42.130;24.762;2023-04-27T03:54:08;99530.84;;;12.46;59.98
28630;BME280;15817;42.130;24.762;2023-04-27T03:56:37;99552.09;;;12.52;59.27
28630;BME280;15817;42.130;24.762;2023-04-27T03:59:05;99556.53;;;12.52;59.08
28630;BME280;15817;42.130;24.762;2023-04-27T04:01:33;99540.66;;;12.46;59.34
28630;BME280;15817;42.130;24.762;2023-04-27T04:04:02;99542.47;;;12.44;59.33
28630;BME280;15817;42.130;24.762;2023-04-27T04:06:31;99545.06;;;12.47;59.23
28630;BME280;15817;42.130;24.762;2023-04-27T04:09:13;99564.50;;;12.53;59.55
28630;BME280;15817;42.130;24.762;2023-04-27T04:11:40;99545.16;;;12.42;59.31
28630;BME280;15817;42.130;24.762;2023-04-27T04:14:13;99562.78;;;12.51;58.93
28630;BME280;15817;42.130;24.762;2023-04-27T04:16:50;99561.16;;;12.44;58.68
28630;BME280;15817;42.130;24.762;2023-04-27T04:19:25;99567.25;;;12.49;59.02
28630;BME280;15817;42.130;24.762;2023-04-27T04:22:04;99564.66;;;12.46;59.37
28630;BME280;15817;42.130;24.762;2023-04-27T04:24:33;99579.63;;;12.53;59.04
28630;BME280;15817;42.130;24.762;2023-04-27T04:26:59;99570.81;;;12.48;58.83
28630;BME280;15817;42.130;24.762;2023-04-27T04:29:25;99591.22;;;12.52;58.68
28630;BME280;15817;42.130;24.762;2023-04-27T04:32:10;99583.22;;;12.52;59.02
28630;BME280;15817;42.130;24.762;2023-04-27T04:34:51;99593.06;;;12.47;58.68
28630;BME280;15817;42.130;24.762;2023-04-27T04:37:27;99589.63;;;12.42;58.66
28630;BME280;15817;42.130;24.762;2023-04-27T04:39:58;99593.16;;;12.44;58.59
28630;BME280;15817;42.130;24.762;2023-04-27T04:42:28;99591.41;;;12.41;58.37
28630;BME280;15817;42.130;24.762;2023-04-27T04:45:08;99586.13;;;12.38;58.16
28630;BME280;15817;42.130;24.762;2023-04-27T04:48:58;99591.41;;;12.41;58.42
28630;BME280;15817;42.130;24.762;2023-04-27T04:51:35;99599.44;;;12.40;57.94
28630;BME280;15817;42.130;24.762;2023-04-27T04:54:32;99602.06;;;12.41;58.38
28630;BME280;15817;42.130;24.762;2023-04-27T04:57:17;99608.16;;;12.48;58.04
28630;BME280;15817;42.130;24.762;2023-04-27T05:02:59;99614.50;;;12.44;57.72
28630;BME280;15817;42.130;24.762;2023-04-27T05:05:25;99609.16;;;12.44;58.07
28630;BME280;15817;42.130;24.762;2023-04-27T05:07:57;99621.47;;;12.51;58.13
28630;BME280;15817;42.130;24.762;2023-04-27T05:10:22;99621.47;;;12.49;57.62
28630;BME280;15817;42.130;24.762;2023-04-27T05:12:54;99640.09;;;12.54;57.70
28630;BME280;15817;42.130;24.762;2023-04-27T05:15:20;99617.13;;;12.45;57.67
28630;BME280;15817;42.130;24.762;2023-04-27T05:17:46;99621.69;;;12.37;57.68
28630;BME280;15817;42.130;24.762;2023-04-27T05:20:12;99637.50;;;12.49;58.04
28630;BME280;15817;42.130;24.762;2023-04-27T05:22:38;99624.28;;;12.42;57.49
28630;BME280;15817;42.130;24.762;2023-04-27T05:25:07;99632.16;;;12.49;57.74
28630;BME280;15817;42.130;24.762;2023-04-27T05:27:49;99644.56;;;12.52;57.70
28630;BME280;15817;42.130;24.762;2023-04-27T05:30:21;99642.81;;;12.51;57.52
28630;BME280;15817;42.130;24.762;2023-04-27T05:32:58;99634.84;;;12.48;57.32
28630;BME280;15817;42.130;24.762;2023-04-27T05:39:00;99646.38;;;12.50;56.53
28630;BME280;15817;42.130;24.762;2023-04-27T05:41:26;99647.34;;;12.46;55.95
28630;BME280;15817;42.130;24.762;2023-04-27T05:43:52;99644.72;;;12.43;55.28
28630;BME280;15817;42.130;24.762;2023-04-27T05:46:20;99639.41;;;12.41;55.64
28630;BME280;15817;42.130;24.762;2023-04-27T05:48:46;99642.09;;;12.40;55.25
28630;BME280;15817;42.130;24.762;2023-04-27T05:51:17;99651.00;;;12.40;55.02
28630;BME280;15817;42.130;24.762;2023-04-27T05:53:46;99658.09;;;12.41;55.35
28630;BME280;15817;42.130;24.762;2023-04-27T05:56:12;99663.38;;;12.44;55.48
28630;BME280;15817;42.130;24.762;2023-04-27T05:58:41;99671.31;;;12.47;55.81
28630;BME280;15817;42.130;24.762;2023-04-27T06:01:07;99662.59;;;12.38;55.09
28630;BME280;15817;42.130;24.762;2023-04-27T06:03:36;99671.34;;;12.46;55.49
28630;BME280;15817;42.130;24.762;2023-04-27T06:06:13;99666.94;;;12.45;55.08
28630;BME280;15817;42.130;24.762;2023-04-27T06:08:57;99677.34;;;12.58;55.07
28630;BME280;15817;42.130;24.762;2023-04-27T06:11:25;99671.97;;;12.60;55.00
28630;BME280;15817;42.130;24.762;2023-04-27T06:13:58;99670.19;;;12.60;55.39
28630;BME280;15817;42.130;24.762;2023-04-27T06:16:24;99675.50;;;12.63;54.50
28630;BME280;15817;42.130;24.762;2023-04-27T06:18:53;99669.28;;;12.61;54.74
28630;BME280;15817;42.130;24.762;2023-04-27T06:21:19;99671.03;;;12.64;54.31
28630;BME280;15817;42.130;24.762;2023-04-27T06:23:47;99671.88;;;12.67;54.29
28630;BME280;15817;42.130;24.762;2023-04-27T06:26:16;99675.31;;;12.73;54.48
28630;BME280;15817;42.130;24.762;2023-04-27T06:28:42;99673.47;;;12.76;54.44
28630;BME280;15817;42.130;24.762;2023-04-27T06:31:17;99658.44;;;12.70;54.74
28630;BME280;15817;42.130;24.762;2023-04-27T06:33:49;99661.97;;;12.73;54.29
28630;BME280;15817;42.130;24.762;2023-04-27T06:36:17;99674.41;;;12.75;54.24
28630;BME280;15817;42.130;24.762;2023-04-27T06:38:54;99657.63;;;12.68;53.94
28630;BME280;15817;42.130;24.762;2023-04-27T06:41:45;99670.88;;;12.72;54.77
28630;BME280;15817;42.130;24.762;2023-04-27T06:44:27;99665.53;;;12.73;54.89
28630;BME280;15817;42.130;24.762;2023-04-27T06:46:56;99667.34;;;12.71;54.60
28630;BME280;15817;42.130;24.762;2023-04-27T06:49:22;99674.34;;;12.78;55.13
28630;BME280;15817;42.130;24.762;2023-04-27T06:51:53;99672.59;;;12.77;55.01
28630;BME280;15817;42.130;24.762;2023-04-27T06:54:22;99671.56;;;12.83;56.66
28630;BME280;15817;42.130;24.762;2023-04-27T06:56:51;99690.06;;;12.93;55.46
28630;BME280;15817;42.130;24.762;2023-04-27T06:59:25;99675.81;;;12.94;55.85
28630;BME280;15817;42.130;24.762;2023-04-27T07:01:51;99671.31;;;12.96;55.77
28630;BME280;15817;42.130;24.762;2023-04-27T07:04:17;99686.22;;;13.08;56.49
28630;BME280;15817;42.130;24.762;2023-04-27T07:06:46;99676.47;;;13.07;54.71
28630;BME280;15817;42.130;24.762;2023-04-27T07:09:14;99688.91;;;13.08;54.85
28630;BME280;15817;42.130;24.762;2023-04-27T07:11:44;99672.84;;;13.11;55.05
28630;BME280;15817;42.130;24.762;2023-04-27T07:14:09;99685.03;;;13.26;54.85
28630;BME280;15817;42.130;24.762;2023-04-27T07:16:40;99672.63;;;13.23;54.38
28630;BME280;15817;42.130;24.762;2023-04-27T07:19:09;99671.53;;;13.33;54.51
28630;BME280;15817;42.130;24.762;2023-04-27T07:21:37;99682.13;;;13.38;54.39
28630;BME280;15817;42.130;24.762;2023-04-27T07:24:11;99662.56;;;13.37;54.20
28630;BME280;15817;42.130;24.762;2023-04-27T07:27:10;99680.22;;;13.43;54.27
28630;BME280;15817;42.130;24.762;2023-04-27T07:29:42;99671.25;;;13.47;54.71
28630;BME280;15817;42.130;24.762;2023-04-27T07:32:10;99669.31;;;13.54;54.24
28630;BME280;15817;42.130;24.762;2023-04-27T07:34:36;99677.09;;;13.64;54.15
28630;BME280;15817;42.130;24.762;2023-04-27T07:37:02;99675.44;;;13.60;53.80
28630;BME280;15817;42.130;24.762;2023-04-27T07:39:33;99662.06;;;13.60;53.20
28630;BME280;15817;42.130;24.762;2023-04-27T07:41:59;99681.34;;;13.74;52.83
28630;BME280;15817;42.130;24.762;2023-04-27T07:44:29;99678.56;;;13.79;52.92
28630;BME280;15817;42.130;24.762;2023-04-27T07:46:55;99670.38;;;13.87;52.50
28630;BME280;15817;42.130;24.762;2023-04-27T07:49:23;99679.94;;;13.97;52.27
28630;BME280;15817;42.130;24.762;2023-04-27T07:51:56;99660.44;;;13.93;51.60
28630;BME280;15817;42.130;24.762;2023-04-27T07:54:24;99661.34;;;13.92;51.19
28630;BME280;15817;42.130;24.762;2023-04-27T07:56:51;99680.00;;;13.95;51.40
28630;BME280;15817;42.130;24.762;2023-04-27T07:59:18;99656.06;;;13.89;55.44
28630;BME280;15817;42.130;24.762;2023-04-27T08:01:45;99676.38;;;13.96;53.80
28630;BME280;15817;42.130;24.762;2023-04-27T08:04:20;99678.03;;;14.03;52.76
28630;BME280;15817;42.130;24.762;2023-04-27T08:06:48;99670.09;;;13.99;53.88
28630;BME280;15817;42.130;24.762;2023-04-27T08:09:14;99668.22;;;14.04;51.84
28630;BME280;15817;42.130;24.762;2023-04-27T08:11:42;99671.50;;;14.15;51.55
28630;BME280;15817;42.130;24.762;2023-04-27T08:14:13;99679.41;;;14.20;50.95
28630;BME280;15817;42.130;24.762;2023-04-27T08:16:48;99670.28;;;14.30;50.21
28630;BME280;15817;42.130;24.762;2023-04-27T08:19:17;99673.69;;;14.35;50.67
28630;BME280;15817;42.130;24.762;2023-04-27T08:21:43;99665.50;;;14.42;50.52
28630;BME280;15817;42.130;24.762;2023-04-27T08:24:09;99664.28;;;14.56;50.33
28630;BME280;15817;42.130;24.762;2023-04-27T08:26:37;99653.50;;;14.59;50.43
28630;BME280;15817;42.130;24.762;2023-04-27T08:29:03;99655.19;;;14.63;49.34
28630;BME280;15817;42.130;24.762;2023-04-27T08:31:29;99649.88;;;14.61;49.59
28630;BME280;15817;42.130;24.762;2023-04-27T08:33:56;99654.88;;;14.75;49.61
28630;BME280;15817;42.130;24.762;2023-04-27T08:36:23;99647.66;;;14.77;49.64
28630;BME280;15817;42.130;24.762;2023-04-27T08:41:58;99647.19;;;14.95;48.71
28630;BME280;15817;42.130;24.762;2023-04-27T08:44:30;99640.00;;;14.97;48.60
28630;BME280;15817;42.130;24.762;2023-04-27T08:46:56;99642.75;;;14.94;48.20
28630;BME280;15817;42.130;24.762;2023-04-27T08:49:25;99637.34;;;14.96;49.03
28630;BME280;15817;42.130;24.762;2023-04-27T08:51:51;99645.16;;;15.03;48.73
28630;BME280;15817;42.130;24.762;2023-04-27T08:54:17;99642.16;;;15.15;48.19
28630;BME280;15817;42.130;24.762;2023-04-27T08:56:43;99633.97;;;15.21;48.12
28630;BME280;15817;42.130;24.762;2023-04-27T08:59:15;99636.97;;;15.40;47.33
28630;BME280;15817;42.130;24.762;2023-04-27T09:01:47;99626.81;;;15.51;47.49
28630;BME280;15817;42.130;24.762;2023-04-27T09:04:14;99622.53;;;15.75;46.70
28630;BME280;15817;42.130;24.762;2023-04-27T09:06:43;99616.50;;;15.97;46.16
28630;BME280;15817;42.130;24.762;2023-04-27T09:09:23;99631.16;;;16.14;45.00
28630;BME280;15817;42.130;24.762;2023-04-27T09:12:21;99621.63;;;16.04;44.77
28630;BME280;15817;42.130;24.762;2023-04-27T09:15:01;99627.63;;;16.12;44.73
28630;BME280;15817;42.130;24.762;2023-04-27T09:17:36;99615.56;;;16.25;45.01
28630;BME280;15817;42.130;24.762;2023-04-27T09:20:06;99625.97;;;16.62;44.56
28630;BME280;15817;42.130;24.762;2023-04-27T09:22:50;99613.41;;;16.63;45.29
28630;BME280;15817;42.130;24.762;2023-04-27T09:25:27;99626.38;;;17.01;43.69
28630;BME280;15817;42.130;24.762;2023-04-27T09:27:53;99605.72;;;17.04;43.92
28630;BME280;15817;42.130;24.762;2023-04-27T09:30:20;99618.91;;;17.10;42.62
28630;BME280;15817;42.130;24.762;2023-04-27T09:32:54;99616.16;;;16.86;43.73
28630;BME280;15817;42.130;24.762;2023-04-27T09:35:29;99592.56;;;16.96;43.47
28630;BME280;15817;42.130;24.762;2023-04-27T09:37:56;99602.38;;;16.72;43.85
28630;BME280;15817;42.130;24.762;2023-04-27T09:40:51;99598.56;;;17.27;42.83
28630;BME280;15817;42.130;24.762;2023-04-27T09:43:17;99596.50;;;17.81;41.66
28630;BME280;15817;42.130;24.762;2023-04-27T09:45:43;99601.75;;;17.60;42.75
28630;BME280;15817;42.130;24.762;2023-04-27T09:48:10;99614.31;;;17.13;43.22
28630;BME280;15817;42.130;24.762;2023-04-27T09:50:36;99607.41;;;16.81;43.91
28630;BME280;15817;42.130;24.762;2023-04-27T09:53:05;99613.78;;;16.51;44.75
28630;BME280;15817;42.130;24.762;2023-04-27T09:55:39;99617.22;;;16.29;44.84
28630;BME280;15817;42.130;24.762;2023-04-27T10:03:28;99609.59;;;16.16;45.39
28630;BME280;15817;42.130;24.762;2023-04-27T10:08:41;99600.34;;;17.04;43.57
28630;BME280;15817;42.130;24.762;2023-04-27T10:11:15;99591.16;;;17.09;43.03
28630;BME280;15817;42.130;24.762;2023-04-27T10:13:54;99608.78;;;16.93;43.57
28630;BME280;15817;42.130;24.762;2023-04-27T10:16:20;99590.91;;;17.40;42.38
28630;BME280;15817;42.130;24.762;2023-04-27T10:18:54;99594.31;;;18.12;40.87
28630;BME280;15817;42.130;24.762;2023-04-27T10:21:21;99598.66;;;17.48;42.35
28630;BME280;15817;42.130;24.762;2023-04-27T10:23:49;99593.97;;;17.06;42.57
28630;BME280;15817;42.130;24.762;2023-04-27T10:26:26;99597.31;;;16.88;42.75
28630;BME280;15817;42.130;24.762;2023-04-27T10:29:10;99604.69;;;16.83;42.82
28630;BME280;15817;42.130;24.762;2023-04-27T10:31:48;99596.91;;;16.74;43.15
28630;BME280;15817;42.130;24.762;2023-04-27T10:34:17;99597.66;;;16.79;43.23
28630;BME280;15817;42.130;24.762;2023-04-27T10:36:46;99595.13;;;16.74;44.33
28630;BME280;15817;42.130;24.762;2023-04-27T10:39:21;99595.59;;;16.60;45.70
28630;BME280;15817;42.130;24.762;2023-04-27T10:41:55;99597.78;;;16.49;47.01
28630;BME280;15817;42.130;24.762;2023-04-27T10:44:26;99611.34;;;16.45;47.63
28630;BME280;15817;42.130;24.762;2023-04-27T10:46:54;99610.47;;;16.44;48.45
28630;BME280;15817;42.130;24.762;2023-04-27T10:49:21;99619.44;;;16.43;48.71
28630;BME280;15817;42.130;24.762;2023-04-27T10:51:50;99611.28;;;16.46;48.15
28630;BME280;15817;42.130;24.762;2023-04-27T10:54:17;99620.13;;;16.50;48.36
28630;BME280;15817;42.130;24.762;2023-04-27T10:56:43;99618.47;;;16.46;45.88
28630;BME280;15817;42.130;24.762;2023-04-27T10:59:09;99613.00;;;16.49;45.67
28630;BME280;15817;42.130;24.762;2023-04-27T11:01:35;99612.91;;;16.50;44.79
28630;BME280;15817;42.130;24.762;2023-04-27T11:04:02;99619.13;;;16.52;44.64
28630;BME280;15817;42.130;24.762;2023-04-27T11:06:29;99618.88;;;16.60;44.91
28630;BME280;15817;42.130;24.762;2023-04-27T11:08:58;99628.44;;;16.69;44.58
28630;BME280;15817;42.130;24.762;2023-04-27T11:11:24;99620.50;;;16.65;47.06
28630;BME280;15817;42.130;24.762;2023-04-27T11:13:51;99615.22;;;16.62;43.92
28630;BME280;15817;42.130;24.762;2023-04-27T11:16:34;99617.81;;;16.65;43.84
28630;BME280;15817;42.130;24.762;2023-04-27T11:19:04;99620.81;;;16.55;43.98
28630;BME280;15817;42.130;24.762;2023-04-27T11:21:38;99625.22;;;16.57;43.39
28630;BME280;15817;42.130;24.762;2023-04-27T11:27:38;99634.16;;;16.58;43.39
28630;BME280;15817;42.130;24.762;2023-04-27T11:34:07;99636.84;;;16.58;43.87
28630;BME280;15817;42.130;24.762;2023-04-27T11:37:02;99632.34;;;16.58;43.74
28630;BME280;15817;42.130;24.762;2023-04-27T11:39:49;99624.44;;;16.54;44.32
28630;BME280;15817;42.130;24.762;2023-04-27T11:42:19;99633.09;;;16.63;44.24
28630;BME280;15817;42.130;24.762;2023-04-27T11:45:10;99634.69;;;16.69;42.98
28630;BME280;15817;42.130;24.762;2023-04-27T11:47:37;99635.16;;;16.82;42.48
28630;BME280;15817;42.130;24.762;2023-04-27T11:50:10;99627.03;;;16.83;41.64
28630;BME280;15817;42.130;24.762;2023-04-27T11:52:38;99628.53;;;16.92;41.50
28630;BME280;15817;42.130;24.762;2023-04-27T11:55:07;99623.19;;;16.90;41.14
28630;BME280;15817;42.130;24.762;2023-04-27T11:57:59;99615.03;;;16.93;40.55
28630;BME280;15817;42.130;24.762;2023-04-27T12:00:25;99629.72;;;17.08;41.22
28630;BME280;15817;42.130;24.762;2023-04-27T12:03:01;99619.72;;;17.12;41.02
28630;BME280;15817;42.130;24.762;2023-04-27T12:05:35;99622.97;;;17.21;39.69
28630;BME280;15817;42.130;24.762;2023-04-27T12:08:01;99615.56;;;17.28;39.94
28630;BME280;15817;42.130;24.762;2023-04-27T12:10:36;99619.34;;;17.22;39.27
28630;BME280;15817;42.130;24.762;2023-04-27T12:13:13;99634.44;;;17.26;39.74
28630;BME280;15817;42.130;24.762;2023-04-27T12:15:44;99614.63;;;17.52;39.34
28630;BME280;15817;42.130;24.762;2023-04-27T12:18:10;99617.59;;;17.91;38.93
28630;BME280;15817;42.130;24.762;2023-04-27T12:20:39;99613.75;;;18.20;37.28
28630;BME280;15817;42.130;24.762;2023-04-27T12:23:22;99628.03;;;18.22;37.55
28630;BME280;15817;42.130;24.762;2023-04-27T12:25:50;99603.78;;;18.00;37.71
28630;BME280;15817;42.130;24.762;2023-04-27T12:28:16;99619.31;;;18.16;37.83
28630;BME280;15817;42.130;24.762;2023-04-27T12:30:48;99622.47;;;18.47;36.84
28630;BME280;15817;42.130;24.762;2023-04-27T12:33:17;99614.91;;;18.35;37.35
28630;BME280;15817;42.130;24.762;2023-04-27T12:36:03;99613.84;;;18.81;36.01
28630;BME280;15817;42.130;24.762;2023-04-27T13:39:26;99606.91;;;17.66;40.12
28630;BME280;15817;42.130;24.762;2023-04-27T13:41:53;99615.13;;;17.63;39.87
28630;BME280;15817;42.130;24.762;2023-04-27T13:44:19;99619.09;;;17.53;39.72
28630;BME280;15817;42.130;24.762;2023-04-27T13:46:50;99613.72;;;17.53;39.96
28630;BME280;15817;42.130;24.762;2023-04-27T13:49:19;99620.94;;;17.51;39.98
28630;BME280;15817;42.130;24.762;2023-04-27T13:52:16;99623.69;;;17.50;39.48
28630;BME280;15817;42.130;24.762;2023-04-27T13:55:07;99617.66;;;17.43;40.60
28630;BME280;15817;42.130;24.762;2023-04-27T13:58:21;99617.59;;;17.45;38.78
28630;BME280;15817;42.130;24.762;2023-04-27T14:01:16;99620.53;;;17.38;38.39
28630;BME280;15817;42.130;24.762;2023-04-27T14:03:57;99622.34;;;17.61;39.07
28630;BME280;15817;42.130;24.762;2023-04-27T14:06:39;99618.78;;;17.84;37.26
28630;BME280;15817;42.130;24.762;2023-04-27T14:09:34;99632.47;;;17.78;38.47
28630;BME280;15817;42.130;24.762;2023-04-27T14:12:05;99614.25;;;17.63;37.65
28630;BME280;15817;42.130;24.762;2023-04-27T14:17:52;99628.09;;;17.52;37.87
28630;BME280;15817;42.130;24.762;2023-04-27T14:20:36;99635.50;;;17.46;38.48
28630;BME280;15817;42.130;24.762;2023-04-27T14:23:51;99639.09;;;17.45;39.79
28630;BME280;15817;42.130;24.762;2023-04-27T14:26:25;99633.97;;;17.38;43.78
28630;BME280;15817;42.130;24.762;2023-04-27T14:28:53;99633.94;;;17.40;45.74
28630;BME280;15817;42.130;24.762;2023-04-27T14:31:37;99637.59;;;17.37;47.32
28630;BME280;15817;42.130;24.762;2023-04-27T14:34:04;99650.94;;;17.41;49.96
28630;BME280;15817;42.130;24.762;2023-04-27T14:36:48;99642.50;;;17.26;51.80
28630;BME280;15817;42.130;24.762;2023-04-27T14:39:24;99644.31;;;17.26;53.06
28630;BME280;15817;42.130;24.762;2023-04-27T14:42:16;99642.66;;;17.22;53.30